Time;durP1;ratioP1;P1;durP2;ratioP2;P2;SDS_P1;SDS_P2;PMS_P1;PMS_P2;Temp;Humidity;BMP_temperature;BMP_pressure;BME280_temperature;BME280_humidity;BME280_pressure;Samples;Min_cycle;Max_cycle;Signal;HPM_P1;HPM_P2
2021/11/28 00:00:55;;;;;;;13.73;10.23;;;;;;;-0.14;100.00;96304.53;10407143;28;20318;-80
2021/11/28 00:06:01;;;;;;;15.13;9.77;;;;;;;-0.11;100.00;96298.13;10402776;28;20050;-79
2021/11/28 00:11:18;;;;;;;12.98;9.05;;;;;;;-0.07;100.00;96308.28;10402923;28;20838;-80
2021/11/28 00:16:22;;;;;;;11.90;9.57;;;;;;;-0.14;100.00;96293.97;10405383;28;20041;-79
2021/11/28 00:21:26;;;;;;;11.27;9.05;;;;;;;-0.19;100.00;96280.34;10406426;28;20062;-80
2021/11/28 00:26:31;;;;;;;11.07;9.02;;;;;;;-0.23;100.00;96287.72;10407275;28;20053;-79
2021/11/28 00:31:34;;;;;;;13.23;9.10;;;;;;;-0.23;100.00;96294.84;10385322;28;20060;-80
2021/11/28 00:36:37;;;;;;;12.00;8.75;;;;;;;-0.30;100.00;96293.78;10378575;28;20034;-80
2021/11/28 00:41:41;;;;;;;10.82;8.05;;;;;;;-0.37;100.00;96289.03;10359687;28;20064;-80
2021/11/28 00:47:04;;;;;;;11.43;8.63;;;;;;;-0.44;100.00;96287.97;10378054;28;20041;-81
2021/11/28 00:52:07;;;;;;;12.00;8.70;;;;;;;-0.50;100.00;96284.09;10377765;28;20048;-80
2021/11/28 00:57:12;;;;;;;11.95;8.10;;;;;;;-0.59;100.00;96290.25;10368497;28;20042;-80
2021/11/28 01:02:17;;;;;;;12.13;8.40;;;;;;;-0.64;100.00;96298.59;10390677;28;20057;-81
2021/11/28 01:07:20;;;;;;;14.45;8.45;;;;;;;-0.68;100.00;96305.16;10386322;28;20077;-80
2021/11/28 01:12:25;;;;;;;15.13;9.02;;;;;;;-0.72;100.00;96301.13;10354133;28;20049;-80
2021/11/28 01:17:30;;;;;;;12.32;8.05;;;;;;;-0.78;100.00;96302.53;10373179;28;20048;-81
2021/11/28 01:22:33;;;;;;;12.65;8.45;;;;;;;-0.80;100.00;96308.94;10371193;28;20076;-80
2021/11/28 01:27:38;;;;;;;16.42;10.38;;;;;;;-0.85;100.00;96319.09;10372123;28;20060;-81
2021/11/28 01:32:44;;;;;;;14.10;9.10;;;;;;;-0.82;100.00;96329.41;10379641;28;20081;-81
2021/11/28 01:37:47;;;;;;;13.15;9.60;;;;;;;-0.78;100.00;96328.97;10378999;28;20057;-81
2021/11/28 01:42:53;;;;;;;12.63;8.90;;;;;;;-0.80;100.00;96319.53;10369942;28;20619;-80
2021/11/28 01:47:59;;;;;;;14.18;8.98;;;;;;;-0.83;100.00;96310.06;10366350;28;20058;-80
2021/11/28 01:53:06;;;;;;;10.98;7.80;;;;;;;-0.86;100.00;96309.50;10365087;28;20088;-80
2021/11/28 01:58:11;;;;;;;12.70;8.02;;;;;;;-0.89;100.00;96323.03;10362477;28;20037;-80
2021/11/28 02:03:18;;;;;;;13.20;8.38;;;;;;;-0.95;100.00;96309.38;10369055;28;20050;-81
2021/11/28 02:08:21;;;;;;;11.40;7.47;;;;;;;-0.99;100.00;96297.41;10361240;28;20048;-80
2021/11/28 02:13:27;;;;;;;10.35;7.88;;;;;;;-1.04;100.00;96294.38;10357975;28;20050;-81
2021/11/28 02:18:30;;;;;;;14.82;8.27;;;;;;;-1.08;100.00;96295.63;10365450;28;20045;-81
2021/11/28 02:23:36;;;;;;;12.05;7.75;;;;;;;-1.11;100.00;96293.25;10356819;28;20049;-81
2021/11/28 02:28:41;;;;;;;9.93;6.78;;;;;;;-1.16;100.00;96300.78;10363945;28;20049;-80
2021/11/28 02:33:44;;;;;;;15.27;7.60;;;;;;;-1.22;100.00;96291.63;10374320;28;20042;-81
2021/11/28 02:38:49;;;;;;;12.55;7.18;;;;;;;-1.26;100.00;96292.88;10353036;28;20539;-81
2021/11/28 02:43:53;;;;;;;13.48;8.18;;;;;;;-1.31;100.00;96293.28;10372265;28;20050;-81
2021/11/28 02:48:58;;;;;;;12.45;7.07;;;;;;;-1.34;100.00;96293.56;10366906;28;20108;-81
2021/11/28 02:54:03;;;;;;;11.52;7.63;;;;;;;-1.39;100.00;96279.97;10371926;28;20038;-80
2021/11/28 02:59:06;;;;;;;15.48;8.32;;;;;;;-1.44;100.00;96271.59;10355396;28;20046;-81
2021/11/28 03:04:09;;;;;;;17.55;8.52;;;;;;;-1.43;100.00;96273.28;10368389;28;20050;-80
2021/11/28 03:09:13;;;;;;;10.80;7.82;;;;;;;-1.43;100.00;96270.63;10361479;28;20053;-80
2021/11/28 03:14:16;;;;;;;14.70;8.18;;;;;;;-1.43;100.00;96266.19;10371596;28;20048;-81
2021/11/28 03:19:20;;;;;;;12.13;8.43;;;;;;;-1.46;100.00;96281.47;10358384;28;21361;-80
2021/11/28 03:24:24;;;;;;;15.85;8.23;;;;;;;-1.50;100.00;96288.03;10369996;28;20049;-80
2021/11/28 03:29:28;;;;;;;11.40;8.02;;;;;;;-1.55;100.00;96294.53;10374193;28;20453;-80
2021/11/28 03:34:34;;;;;;;12.45;7.60;;;;;;;-1.57;100.00;96296.47;10375477;28;20570;-81
2021/11/28 03:39:45;;;;;;;17.30;9.32;;;;;;;-1.60;100.00;96288.84;10384668;28;20038;-81
2021/11/28 03:44:52;;;;;;;16.35;9.68;;;;;;;-1.61;100.00;96284.53;10377712;28;20077;-80
2021/11/28 03:49:55;;;;;;;14.50;8.93;;;;;;;-1.62;100.00;96285.50;10372281;28;20534;-80
2021/11/28 03:55:00;;;;;;;17.35;9.32;;;;;;;-1.61;100.00;96288.97;10351235;28;20567;-80
2021/11/28 04:00:07;;;;;;;16.42;10.07;;;;;;;-1.61;100.00;96300.38;10355011;28;20045;-81
2021/11/28 04:05:21;;;;;;;19.30;10.20;;;;;;;-1.61;100.00;96304.81;10355911;28;20092;-80
2021/11/28 04:10:29;;;;;;;14.38;9.77;;;;;;;-1.62;100.00;96305.78;10367003;28;20072;-80
2021/11/28 04:15:36;;;;;;;19.85;10.88;;;;;;;-1.68;100.00;96296.59;10355395;28;21321;-80
2021/11/28 04:20:49;;;;;;;15.15;9.45;;;;;;;-1.70;100.00;96303.81;10362859;28;20050;-80
2021/11/28 04:25:55;;;;;;;13.43;9.15;;;;;;;-1.71;100.00;96296.91;10374446;28;20308;-80
2021/11/28 04:31:00;;;;;;;18.02;10.45;;;;;;;-1.75;100.00;96303.41;10376792;28;20041;-80
2021/11/28 04:36:05;;;;;;;16.65;9.82;;;;;;;-1.77;100.00;96313.28;10359113;28;20155;-80
2021/11/28 04:41:10;;;;;;;17.98;10.13;;;;;;;-1.78;100.00;96307.19;10373810;28;20042;-80
2021/11/28 04:46:20;;;;;;;15.77;10.65;;;;;;;-1.80;100.00;96316.19;10358851;28;20121;-80
2021/11/28 04:51:24;;;;;;;19.92;11.43;;;;;;;-1.79;100.00;96312.56;10359488;28;20054;-80
2021/11/28 04:56:30;;;;;;;16.10;10.20;;;;;;;-1.82;100.00;96315.50;10355672;28;20546;-80
2021/11/28 05:01:33;;;;;;;18.15;10.65;;;;;;;-1.83;100.00;96321.75;10358872;28;20053;-80
2021/11/28 05:06:47;;;;;;;15.60;10.48;;;;;;;-1.84;100.00;96325.34;10358819;28;20064;-80
2021/11/28 05:12:27;;;;;;;21.58;11.63;;;;;;;-1.82;100.00;96337.44;10349615;28;20045;-80
2021/11/28 05:17:31;;;;;;;16.73;12.23;;;;;;;-1.76;100.00;96333.41;10380671;28;20514;-80
2021/11/28 05:22:37;;;;;;;19.33;10.52;;;;;;;-1.70;100.00;96338.16;10360521;28;21001;-80
2021/11/28 05:27:42;;;;;;;17.70;11.27;;;;;;;-1.64;100.00;96342.03;10359788;28;20100;-80
2021/11/28 05:32:45;;;;;;;19.15;12.95;;;;;;;-1.59;100.00;96348.59;10371952;28;20037;-80
2021/11/28 05:38:23;;;;;;;23.08;11.45;;;;;;;-1.53;100.00;96356.94;10376081;28;20053;-80
2021/11/28 05:43:28;;;;;;;15.30;11.13;;;;;;;-1.50;100.00;96357.50;10382344;28;20048;-80
2021/11/28 05:48:32;;;;;;;15.43;10.98;;;;;;;-1.47;100.00;96359.06;10404597;28;20503;-79
2021/11/28 05:53:58;;;;;;;19.88;11.55;;;;;;;-1.45;100.00;96357.09;10399446;28;20069;-78
2021/11/28 05:59:03;;;;;;;18.52;11.00;;;;;;;-1.41;100.00;96361.94;10404123;28;20602;-80
2021/11/28 06:04:06;;;;;;;17.40;10.38;;;;;;;-1.39;100.00;96361.84;10400760;28;20144;-81
2021/11/28 06:09:41;;;;;;;16.60;9.98;;;;;;;-1.39;100.00;96353.91;10405942;28;20048;-79
2021/11/28 06:14:51;;;;;;;19.20;11.00;;;;;;;-1.38;100.00;96346.81;10424247;28;20045;-79
2021/11/28 06:19:56;;;;;;;16.55;10.68;;;;;;;-1.38;100.00;96349.44;10435521;28;20049;-81
2021/11/28 06:25:29;;;;;;;15.98;10.82;;;;;;;-1.39;100.00;96340.69;10381570;28;20046;-81
2021/11/28 06:30:53;;;;;;;16.27;10.18;;;;;;;-1.42;100.00;96330.41;10399880;28;20044;-78
2021/11/28 06:36:16;;;;;;;16.73;10.13;;;;;;;-1.45;100.00;96333.31;10400787;28;20053;-80
2021/11/28 06:41:20;;;;;;;14.50;10.75;;;;;;;-1.48;100.00;96341.53;10419937;28;20113;-78
2021/11/28 06:46:25;;;;;;;17.88;10.75;;;;;;;-1.53;100.00;96338.47;10425178;28;20045;-78
2021/11/28 06:51:29;;;;;;;15.85;10.45;;;;;;;-1.58;100.00;96330.94;10414177;28;20047;-78
2021/11/28 06:56:35;;;;;;;13.38;10.15;;;;;;;-1.66;100.00;96334.28;10399741;28;20041;-77
2021/11/28 07:01:44;;;;;;;18.38;10.98;;;;;;;-1.72;100.00;96342.75;10400895;28;20080;-77
2021/11/28 07:07:06;;;;;;;13.93;10.07;;;;;;;-1.78;100.00;96351.19;10400606;28;20042;-78
2021/11/28 07:12:12;;;;;;;15.27;10.25;;;;;;;-1.81;100.00;96352.31;10385339;28;20045;-78
2021/11/28 07:17:18;;;;;;;15.32;10.38;;;;;;;-1.87;100.00;96347.56;10383546;28;20049;-78
2021/11/28 07:22:22;;;;;;;16.30;10.50;;;;;;;-1.90;100.00;96350.47;10396959;28;20195;-78
2021/11/28 07:27:28;;;;;;;17.40;10.98;;;;;;;-1.95;100.00;96352.69;10380612;28;20401;-80
2021/11/28 07:32:33;;;;;;;19.55;11.65;;;;;;;-1.95;100.00;96361.44;10385339;28;20136;-78
2021/11/28 07:37:55;;;;;;;20.70;11.85;;;;;;;-1.94;100.00;96373.63;10395989;28;20046;-78
2021/11/28 07:42:59;;;;;;;20.10;11.50;;;;;;;-1.94;100.00;96362.28;10398003;28;20045;-78
2021/11/28 07:48:29;;;;;;;19.25;10.85;;;;;;;-1.93;100.00;96370.03;10371132;28;20049;-77
2021/11/28 07:53:47;;;;;;;17.27;11.25;;;;;;;-1.93;100.00;96364.75;10399440;28;20053;-78
2021/11/28 07:58:52;;;;;;;18.05;11.60;;;;;;;-1.94;100.00;96373.63;10399467;28;20473;-79
2021/11/28 08:04:00;;;;;;;19.33;11.45;;;;;;;-1.95;100.00;96372.00;10390402;28;20052;-78
2021/11/28 08:09:23;;;;;;;15.20;10.68;;;;;;;-1.95;100.00;96377.28;10403064;28;20132;-79
2021/11/28 08:14:38;;;;;;;18.00;12.00;;;;;;;-1.92;100.00;96377.00;10399072;28;20041;-79
2021/11/28 08:19:43;;;;;;;17.95;10.65;;;;;;;-1.89;100.00;96381.19;10406662;28;20038;-79
2021/11/28 08:24:47;;;;;;;15.88;10.02;;;;;;;-1.87;100.00;96385.34;10398062;28;20379;-79
2021/11/28 08:29:50;;;;;;;17.88;10.60;;;;;;;-1.84;100.00;96384.25;10379613;28;20038;-78
2021/11/28 08:35:24;;;;;;;18.98;11.82;;;;;;;-1.77;100.00;96392.47;10399608;28;21398;-77
2021/11/28 08:40:28;;;;;;;25.42;12.57;;;;;;;-1.72;100.00;96393.72;10391355;28;20133;-80
2021/11/28 08:45:31;;;;;;;21.45;11.85;;;;;;;-1.69;100.00;96391.78;10386839;28;20041;-80
2021/11/28 08:50:36;;;;;;;19.10;12.95;;;;;;;-1.64;100.00;96386.91;10418511;28;20029;-78
2021/11/28 08:55:39;;;;;;;17.63;10.95;;;;;;;-1.59;100.00;96398.75;10416324;28;20149;-79
2021/11/28 09:00:42;;;;;;;16.92;9.88;;;;;;;-1.52;100.00;96403.50;10386813;28;20120;-81
2021/11/28 09:05:47;;;;;;;15.88;10.18;;;;;;;-1.46;100.00;96398.50;10402754;28;20410;-79
2021/11/28 09:10:50;;;;;;;19.30;11.45;;;;;;;-1.40;100.00;96397.97;10402762;28;20127;-78
2021/11/28 09:15:54;;;;;;;21.77;11.43;;;;;;;-1.30;100.00;96397.16;10385929;28;20061;-79
2021/11/28 09:21:11;;;;;;;19.13;10.93;;;;;;;-1.19;100.00;96397.03;10400671;28;20041;-79
2021/11/28 09:26:16;;;;;;;15.65;9.57;;;;;;;-1.04;100.00;96401.88;10398889;28;20041;-78
2021/11/28 09:31:20;;;;;;;14.25;9.05;;;;;;;-0.93;100.00;96401.75;10395917;28;20898;-80
2021/11/28 09:36:26;;;;;;;20.25;10.30;;;;;;;-0.80;100.00;96399.66;10385603;28;20526;-78
2021/11/28 09:41:34;;;;;;;16.08;10.73;;;;;;;-0.65;100.00;96391.31;10401464;28;20033;-80
2021/11/28 09:46:38;;;;;;;18.65;9.57;;;;;;;-0.56;100.00;96395.72;10378311;28;20510;-79
2021/11/28 09:51:47;;;;;;;15.68;8.80;;;;;;;-0.42;100.00;96386.53;10401183;28;20076;-79
2021/11/28 09:56:51;;;;;;;13.75;8.80;;;;;;;-0.33;100.00;96377.75;10401588;28;20490;-79
2021/11/28 10:01:57;;;;;;;14.63;8.50;;;;;;;-0.21;100.00;96381.03;10400334;28;20033;-79
2021/11/28 10:07:03;;;;;;;18.20;8.93;;;;;;;-0.06;100.00;96369.97;10385875;28;20045;-79
2021/11/28 10:12:17;;;;;;;15.20;9.23;;;;;;;0.15;100.00;96364.47;10380932;28;20147;-78
2021/11/28 10:17:24;;;;;;;10.73;6.90;;;;;;;0.43;100.00;96360.00;10389145;28;20049;-79
2021/11/28 10:22:30;;;;;;;11.35;7.13;;;;;;;0.57;100.00;96350.69;10395246;28;20048;-77
2021/11/28 10:27:36;;;;;;;10.48;6.70;;;;;;;0.73;100.00;96351.84;10402051;28;20049;-78
2021/11/28 10:32:49;;;;;;;10.32;6.70;;;;;;;0.85;100.00;96345.34;10399059;28;20037;-80
2021/11/28 10:37:54;;;;;;;12.75;6.85;;;;;;;0.95;100.00;96352.38;10400386;28;20868;-86
2021/11/28 10:43:09;;;;;;;13.02;6.60;;;;;;;0.91;100.00;96342.06;10383530;28;20415;-76
2021/11/28 10:48:14;;;;;;;12.93;6.68;;;;;;;1.02;100.00;96337.50;10383156;28;20076;-74
2021/11/28 10:53:22;;;;;;;9.88;6.97;;;;;;;1.03;100.00;96331.22;10384386;28;20800;-75
2021/11/28 10:58:28;;;;;;;12.27;6.60;;;;;;;1.07;100.00;96330.75;10385343;28;20124;-75
2021/11/28 11:03:34;;;;;;;12.57;5.78;;;;;;;1.11;100.00;96331.31;10384125;28;20046;-74
2021/11/28 11:08:41;;;;;;;13.27;5.63;;;;;;;1.07;100.00;96325.47;10384423;28;20530;-75
2021/11/28 11:13:56;;;;;;;9.38;5.10;;;;;;;1.02;100.00;96325.09;10384188;28;20128;-75
2021/11/28 11:19:28;;;;;;;11.90;6.30;;;;;;;1.06;100.00;96323.78;10384552;28;20053;-75
2021/11/28 11:24:38;;;;;;;9.88;6.22;;;;;;;1.06;100.00;96328.28;10387667;28;20466;-75
2021/11/28 11:29:47;;;;;;;12.25;5.55;;;;;;;1.15;100.00;96340.59;10434446;28;20034;-74
2021/11/28 11:34:54;;;;;;;11.75;6.40;;;;;;;1.27;100.00;96353.63;10387359;28;20085;-75
2021/11/28 11:40:08;;;;;;;11.27;6.50;;;;;;;1.34;100.00;96344.06;10386033;28;20151;-75
2021/11/28 11:45:17;;;;;;;11.18;6.35;;;;;;;1.46;100.00;96340.19;10382473;28;20537;-75
2021/11/28 11:50:24;;;;;;;10.07;5.60;;;;;;;1.61;100.00;96337.78;10386092;28;20049;-76
2021/11/28 11:55:32;;;;;;;10.23;5.47;;;;;;;1.71;100.00;96342.97;10379993;28;20056;-75
2021/11/28 12:00:43;;;;;;;9.45;5.05;;;;;;;1.82;100.00;96340.03;10380748;28;20546;-77
2021/11/28 12:05:47;;;;;;;8.82;5.00;;;;;;;1.91;100.00;96335.63;10378465;28;20572;-76
2021/11/28 12:11:06;;;;;;;10.35;4.40;;;;;;;1.96;100.00;96330.66;10383202;28;20049;-76
2021/11/28 12:16:20;;;;;;;8.85;5.25;;;;;;;1.98;100.00;96339.31;10363568;28;20056;-76
2021/11/28 12:21:39;;;;;;;7.90;5.10;;;;;;;2.06;100.00;96333.19;10366557;28;20525;-75
2021/11/28 12:26:48;;;;;;;10.57;4.90;;;;;;;2.11;100.00;96332.72;10381326;28;20524;-76
2021/11/28 12:31:55;;;;;;;10.50;5.18;;;;;;;2.16;100.00;96335.72;10381754;28;20231;-75
2021/11/28 12:37:00;;;;;;;8.98;5.47;;;;;;;2.22;100.00;96336.91;10384628;28;20635;-76
2021/11/28 12:42:07;;;;;;;10.30;5.70;;;;;;;2.25;100.00;96331.28;10399561;28;20112;-78
2021/11/28 12:47:23;;;;;;;10.15;5.00;;;;;;;2.28;100.00;96323.00;10402651;28;20045;-75
2021/11/28 12:52:49;;;;;;;8.27;5.43;;;;;;;2.28;100.00;96321.16;10406280;28;20030;-76
2021/11/28 12:58:08;;;;;;;16.85;6.90;;;;;;;2.31;100.00;96327.97;10404738;28;20540;-75
2021/11/28 13:03:25;;;;;;;11.85;6.10;;;;;;;2.33;100.00;96315.34;10404305;28;20059;-76
2021/11/28 13:08:34;;;;;;;10.48;6.68;;;;;;;2.34;100.00;96319.69;10401854;28;20045;-76
2021/11/28 13:14:08;;;;;;;11.57;6.78;;;;;;;2.36;100.00;96320.34;10382516;28;20038;-77
2021/11/28 13:19:15;;;;;;;9.43;5.43;;;;;;;2.36;100.00;96312.38;10402467;28;20661;-77
2021/11/28 13:24:37;;;;;;;10.55;5.25;;;;;;;2.36;100.00;96315.03;10400196;28;20045;-77
2021/11/28 13:30:33;;;;;;;14.05;7.63;;;;;;;2.40;100.00;96308.41;10375522;28;20053;-76
2021/11/28 13:35:37;;;;;;;14.70;7.22;;;;;;;2.41;100.00;96312.72;10401688;28;20124;-76
2021/11/28 13:40:41;;;;;;;12.70;6.55;;;;;;;2.42;100.00;96309.06;10391417;28;20046;-76
2021/11/28 13:45:58;;;;;;;10.45;5.85;;;;;;;2.42;100.00;96314.38;10388103;28;20053;-77
2021/11/28 13:51:02;;;;;;;10.00;5.25;;;;;;;2.39;100.00;96320.03;10388582;28;20472;-76
2021/11/28 13:56:07;;;;;;;11.45;6.20;;;;;;;2.38;100.00;96321.03;10391502;28;20052;-76
2021/11/28 14:01:17;;;;;;;9.27;5.55;;;;;;;2.33;100.00;96328.63;10388076;28;20449;-76
2021/11/28 14:06:20;;;;;;;9.10;5.68;;;;;;;2.27;100.00;96334.63;10391786;28;20498;-77
2021/11/28 14:11:40;;;;;;;10.65;5.88;;;;;;;2.22;100.00;96326.28;10417316;28;20041;-76
2021/11/28 14:16:53;;;;;;;7.78;5.05;;;;;;;2.19;100.00;96335.41;10403784;28;20152;-77
2021/11/28 14:21:56;;;;;;;9.80;5.47;;;;;;;2.15;100.00;96337.56;10381361;28;20049;-77
2021/11/28 14:27:16;;;;;;;8.00;5.35;;;;;;;2.12;100.00;96337.88;10385819;28;20049;-78
2021/11/28 14:32:22;;;;;;;9.45;5.35;;;;;;;2.09;100.00;96356.78;10381308;28;20087;-77
2021/11/28 14:37:25;;;;;;;10.02;5.57;;;;;;;2.07;100.00;96358.75;10380082;28;20054;-77
2021/11/28 14:42:37;;;;;;;11.45;6.03;;;;;;;2.03;100.00;96354.78;10354014;28;20120;-77
2021/11/28 14:47:43;;;;;;;;;;;;;;;1.97;100.00;96358.03;10360001;28;20060;-76
2021/11/28 14:52:46;;;;;;;11.52;6.10;;;;;;;1.95;100.00;96350.25;10344687;28;19929;-76
2021/11/28 14:57:51;;;;;;;10.50;6.05;;;;;;;1.92;100.00;96365.66;10342984;28;21251;-74
2021/11/28 15:03:08;;;;;;;8.57;5.50;;;;;;;1.89;100.00;96365.97;10351984;28;20037;-80
2021/11/28 15:08:16;;;;;;;9.65;5.82;;;;;;;1.83;100.00;96362.13;10358452;28;20056;-81
2021/11/28 15:13:26;;;;;;;10.23;5.63;;;;;;;1.81;100.00;96370.25;10360905;28;20137;-79
2021/11/28 15:18:31;;;;;;;11.00;6.63;;;;;;;1.78;100.00;96369.72;10336414;28;20046;-77
2021/11/28 15:23:34;;;;;;;10.00;6.53;;;;;;;1.76;100.00;96374.38;10343707;28;20049;-77
2021/11/28 15:28:38;;;;;;;12.18;7.45;;;;;;;1.73;100.00;96374.69;10342261;28;20053;-77
2021/11/28 15:33:43;;;;;;;25.58;13.00;;;;;;;1.69;100.00;96374.16;10356212;28;20091;-81
2021/11/28 15:38:46;;;;;;;15.32;10.43;;;;;;;1.61;100.00;96374.09;10345637;28;20061;-77
2021/11/28 15:43:49;;;;;;;18.65;10.20;;;;;;;1.56;100.00;96379.03;10385852;28;20042;-78
2021/11/28 15:49:13;;;;;;;11.10;6.70;;;;;;;1.50;100.00;96389.28;10399185;28;20056;-81
2021/11/28 15:54:16;;;;;;;12.40;6.72;;;;;;;1.45;100.00;96390.72;10387018;28;20093;-79
2021/11/28 15:59:19;;;;;;;12.45;6.40;;;;;;;1.40;100.00;96396.50;10393807;28;20053;-79
2021/11/28 16:04:24;;;;;;;13.85;6.38;;;;;;;1.37;100.00;96396.81;10394188;28;20057;-80
2021/11/28 16:09:27;;;;;;;10.45;6.93;;;;;;;1.33;100.00;96400.78;10385507;28;20118;-76
2021/11/28 16:14:34;;;;;;;12.05;7.70;;;;;;;1.30;100.00;96393.09;10390021;28;20049;-76
2021/11/28 16:19:39;;;;;;;12.32;7.40;;;;;;;1.26;100.00;96405.00;10392154;28;20042;-75
2021/11/28 16:24:46;;;;;;;11.95;7.57;;;;;;;1.20;100.00;96414.41;10391622;28;20124;-75
2021/11/28 16:29:49;;;;;;;12.93;7.68;;;;;;;1.16;100.00;96408.56;10394102;28;20056;-76
2021/11/28 16:34:58;;;;;;;14.95;7.60;;;;;;;1.13;100.00;96406.22;10394181;28;20096;-76
2021/11/28 16:40:04;;;;;;;13.10;7.38;;;;;;;1.11;100.00;96410.88;10393179;28;20045;-76
2021/11/28 16:45:15;;;;;;;12.32;7.90;;;;;;;1.10;100.00;96419.81;10395801;28;20041;-76
2021/11/28 16:50:47;;;;;;;14.07;7.38;;;;;;;1.08;100.00;96425.25;10404071;28;20057;-77
2021/11/28 16:55:51;;;;;;;14.02;8.27;;;;;;;1.06;100.00;96423.72;10433787;28;20038;-76
2021/11/28 17:00:55;;;;;;;14.35;7.55;;;;;;;1.05;100.00;96432.66;10390792;28;20056;-76
2021/11/28 17:06:00;;;;;;;11.77;8.05;;;;;;;1.05;100.00;96432.66;10386419;28;20390;-79
2021/11/28 17:11:04;;;;;;;15.05;7.70;;;;;;;1.04;100.00;96436.31;10392074;28;20069;-79
2021/11/28 17:16:10;;;;;;;13.00;8.10;;;;;;;1.05;100.00;96437.97;10391947;28;20527;-82
2021/11/28 17:21:15;;;;;;;13.75;8.00;;;;;;;1.03;100.00;96435.47;10393879;28;20509;-80
2021/11/28 17:26:21;;;;;;;11.93;7.38;;;;;;;1.02;100.00;96444.41;10403853;28;20041;-79
2021/11/28 17:31:27;;;;;;;12.23;8.25;;;;;;;1.02;100.00;96436.47;10387534;28;20056;-75
2021/11/28 17:36:33;;;;;;;18.15;10.15;;;;;;;1.02;100.00;96435.59;10392615;28;20116;-77
2021/11/28 17:41:36;;;;;;;13.68;8.80;;;;;;;0.99;100.00;96433.28;10401455;28;20470;-75
2021/11/28 17:46:40;;;;;;;18.08;11.40;;;;;;;0.97;100.00;96441.38;10398867;28;20045;-76
2021/11/28 17:51:44;;;;;;;21.60;13.85;;;;;;;0.96;100.00;96449.47;10400906;28;20080;-76
2021/11/28 17:56:47;;;;;;;26.15;15.23;;;;;;;0.92;100.00;96447.13;10371780;28;20038;-74
2021/11/28 18:01:50;;;;;;;26.88;15.63;;;;;;;0.92;100.00;96449.78;10403517;28;20056;-75
2021/11/28 18:06:56;;;;;;;21.83;13.90;;;;;;;0.88;100.00;96452.88;10399703;28;20747;-74
2021/11/28 18:12:00;;;;;;;18.48;11.35;;;;;;;0.85;100.00;96459.31;10399977;28;20049;-75
2021/11/28 18:17:03;;;;;;;19.00;11.57;;;;;;;0.83;100.00;96460.44;10396984;28;20045;-75
2021/11/28 18:22:08;;;;;;;17.63;11.95;;;;;;;0.78;100.00;96458.22;10398008;28;20048;-75
2021/11/28 18:27:11;;;;;;;19.33;12.00;;;;;;;0.77;100.00;96467.16;10396585;28;20045;-76
2021/11/28 18:32:14;;;;;;;22.25;14.63;;;;;;;0.76;100.00;96460.22;10396019;28;20072;-76
2021/11/28 18:37:18;;;;;;;30.23;18.00;;;;;;;0.73;100.00;96468.44;10394749;28;20037;-76
2021/11/28 18:42:21;;;;;;;38.63;19.55;;;;;;;0.66;100.00;96480.59;10398252;28;20026;-77
2021/11/28 18:47:24;;;;;;;34.22;18.55;;;;;;;0.62;100.00;96482.72;10398272;28;20121;-77
2021/11/28 18:52:29;;;;;;;27.90;17.58;;;;;;;0.63;100.00;96478.28;10394335;28;20491;-75
2021/11/28 18:57:32;;;;;;;20.13;13.05;;;;;;;0.60;100.00;96479.38;10394296;28;20753;-75
2021/11/28 19:02:36;;;;;;;18.58;12.25;;;;;;;0.59;100.00;96478.56;10397042;28;20072;-75
2021/11/28 19:07:40;;;;;;;19.52;12.80;;;;;;;0.58;100.00;96484.00;10396975;28;20079;-79
2021/11/28 19:12:44;;;;;;;19.73;12.48;;;;;;;0.56;100.00;96486.78;10397881;28;20044;-78
2021/11/28 19:17:47;;;;;;;16.90;12.10;;;;;;;0.54;100.00;96487.94;10402916;28;20041;-81
2021/11/28 19:22:51;;;;;;;22.55;13.52;;;;;;;0.53;100.00;96486.25;10383654;28;20045;-79
2021/11/28 19:28:21;;;;;;;19.73;13.50;;;;;;;0.52;100.00;96495.19;10388658;28;20048;-80
2021/11/28 19:33:24;;;;;;;22.70;13.30;;;;;;;0.50;100.00;96499.78;10413479;28;20053;-79
2021/11/28 19:38:28;;;;;;;20.75;14.63;;;;;;;0.49;100.00;96506.91;10381989;28;20057;-78
2021/11/28 19:43:31;;;;;;;21.17;14.15;;;;;;;0.47;100.00;96503.56;10382732;28;20848;-79
2021/11/28 19:48:35;;;;;;;19.40;13.93;;;;;;;0.48;100.00;96515.84;10398704;28;20037;-82
2021/11/28 19:53:40;;;;;;;18.55;13.60;;;;;;;0.52;100.00;96509.28;10375956;28;20045;-76
2021/11/28 19:58:43;;;;;;;19.92;12.88;;;;;;;0.53;100.00;96505.63;10395973;28;20041;-76
2021/11/28 20:03:46;;;;;;;19.08;13.90;;;;;;;0.52;100.00;96503.13;10395546;28;20070;-77
2021/11/28 20:08:54;;;;;;;24.33;15.38;;;;;;;0.52;100.00;96522.53;10391291;28;20132;-76
2021/11/28 20:13:57;;;;;;;25.48;16.02;;;;;;;0.48;100.00;96521.13;10391845;28;20042;-76
2021/11/28 20:19:01;;;;;;;23.08;15.88;;;;;;;0.47;100.00;96514.16;10394736;28;20056;-77
2021/11/28 20:24:06;;;;;;;23.25;15.32;;;;;;;0.46;100.00;96515.13;10391261;28;20038;-77
2021/11/28 20:29:09;;;;;;;22.25;14.88;;;;;;;0.43;100.00;96512.78;10376765;28;20445;-76
2021/11/28 20:34:12;;;;;;;21.60;13.95;;;;;;;0.43;100.00;96518.06;10393531;28;20049;-76
2021/11/28 20:39:17;;;;;;;21.80;13.73;;;;;;;0.41;100.00;96520.06;10396472;28;20056;-76
2021/11/28 20:44:20;;;;;;;20.00;14.02;;;;;;;0.40;100.00;96518.38;10388259;28;20042;-76
2021/11/28 20:49:23;;;;;;;21.15;13.95;;;;;;;0.38;100.00;96521.16;10395653;28;20049;-75
2021/11/28 20:54:28;;;;;;;19.65;14.38;;;;;;;0.35;100.00;96518.81;10397078;28;20065;-75
2021/11/28 20:59:31;;;;;;;21.98;14.45;;;;;;;0.35;100.00;96525.91;10400073;28;20057;-75
2021/11/28 21:04:34;;;;;;;20.63;14.75;;;;;;;0.34;100.00;96524.25;10402052;28;20041;-75
2021/11/28 21:09:38;;;;;;;25.35;14.40;;;;;;;0.33;100.00;96527.88;10403860;28;20037;-76
2021/11/28 21:14:41;;;;;;;22.73;15.18;;;;;;;0.30;100.00;96518.41;10402191;28;20056;-76
2021/11/28 21:19:47;;;;;;;19.85;13.35;;;;;;;0.29;100.00;96528.16;10399505;28;20041;-76
2021/11/28 21:24:54;;;;;;;23.02;14.05;;;;;;;0.27;100.00;96524.84;10399964;28;20045;-76
2021/11/28 21:29:57;;;;;;;19.77;13.40;;;;;;;0.27;100.00;96523.97;10396589;28;20120;-75
2021/11/28 21:35:00;;;;;;;21.35;12.80;;;;;;;0.26;100.00;96528.47;10401012;28;20037;-77
2021/11/28 21:40:06;;;;;;;18.40;13.32;;;;;;;0.24;100.00;96533.06;10383346;28;20532;-77
2021/11/28 21:45:11;;;;;;;22.70;13.10;;;;;;;0.23;100.00;96528.75;10385915;28;20409;-76
2021/11/28 21:50:15;;;;;;;19.50;13.70;;;;;;;0.22;100.00;96527.06;10402881;28;20045;-76
2021/11/28 21:55:21;;;;;;;18.38;13.07;;;;;;;0.22;100.00;96531.53;10400876;28;20048;-77
2021/11/28 22:00:28;;;;;;;19.67;14.10;;;;;;;0.20;100.00;96536.13;10400833;28;20041;-76
2021/11/28 22:05:32;;;;;;;20.33;14.05;;;;;;;0.15;100.00;96528.63;10422321;28;20064;-75
2021/11/28 22:10:37;;;;;;;23.05;15.25;;;;;;;0.10;100.00;96533.50;10419769;28;20127;-75
2021/11/28 22:15:40;;;;;;;20.08;13.50;;;;;;;0.07;100.00;96529.34;10395886;28;20128;-75
2021/11/28 22:20:44;;;;;;;20.58;13.77;;;;;;;0.03;100.00;96533.22;10383926;28;20053;-77
2021/11/28 22:25:49;;;;;;;22.02;15.90;;;;;;;-0.01;100.00;96530.03;10382532;28;20093;-77
2021/11/28 22:30:52;;;;;;;22.20;14.52;;;;;;;-0.07;100.00;96533.28;10396427;28;20060;-76
2021/11/28 22:35:55;;;;;;;21.15;15.27;;;;;;;-0.11;100.00;96538.97;10397582;28;20113;-76
2021/11/28 22:41:00;;;;;;;25.65;14.93;;;;;;;-0.16;100.00;96528.78;10401375;28;20356;-77
2021/11/28 22:46:05;;;;;;;24.15;15.98;;;;;;;-0.24;100.00;96526.88;10405668;28;20062;-76
2021/11/28 22:51:10;;;;;;;27.35;17.27;;;;;;;-0.32;100.00;96522.28;10399014;28;20038;-76
2021/11/28 22:56:17;;;;;;;28.58;17.58;;;;;;;-0.42;100.00;96517.97;10380759;28;20045;-77
2021/11/28 23:01:24;;;;;;;28.42;17.90;;;;;;;-0.49;100.00;96539.69;10397162;28;20041;-76
2021/11/28 23:06:27;;;;;;;22.63;16.50;;;;;;;-0.57;100.00;96546.63;10394585;28;20490;-76
2021/11/28 23:11:32;;;;;;;25.35;16.58;;;;;;;-0.63;100.00;96543.56;10399061;28;20045;-76
2021/11/28 23:16:38;;;;;;;27.42;18.17;;;;;;;-0.66;100.00;96554.44;10376836;28;20049;-76